Garrett, Kentucky
Current Conditions -  °F | °C
As of 9:15 AM on Sunday 25 Jan 2015 (Local Time) from KPBX Reporting Station
Clear Clear  
Wind Chill: 30°   Ceiling: Unl
Heat Index: 36°   Visibility: 10mi
Dew Point: 30°   Wind: 7mph
Humidity: 79%   Direction: 150°SSE
Pressure: 29.79"   Gusts: NA
Location:  37.47°N, 82.83°W
Report Text: KPBX 251415Z AUTO 15006KT 10SM CLR 02/M01 A2979 RMK AO2 T00201013
Loading
Personal Weather Stations






























Interactive Weather Map New forecast layout! Learn more

10-Day Weather Forecast

Advertisements
Track Severe Weather on mobile